sensor_id;sensor_type;location;lat;lon;timestamp;temperature;humidity
18412;DHT22;27097;51.738;19.472;2023-04-03T00:01:40;20.50;78.90
18412;DHT22;27097;51.738;19.472;2023-04-03T00:04:25;20.40;77.10
18412;DHT22;27097;51.738;19.472;2023-04-03T00:06:52;20.40;75.80
18412;DHT22;27097;51.738;19.472;2023-04-03T00:09:22;20.40;74.10
18412;DHT22;27097;51.738;19.472;2023-04-03T00:11:52;20.30;73.20
18412;DHT22;27097;51.738;19.472;2023-04-03T00:14:22;20.20;72.30
18412;DHT22;27097;51.738;19.472;2023-04-03T00:20:24;20.10;72.00
18412;DHT22;27097;51.738;19.472;2023-04-03T00:22:51;20.10;76.00
18412;DHT22;27097;51.738;19.472;2023-04-03T00:25:46;20.10;80.50
18412;DHT22;27097;51.738;19.472;2023-04-03T00:28:13;20.20;86.10
18412;DHT22;27097;51.738;19.472;2023-04-03T00:30:40;20.20;90.30
18412;DHT22;27097;51.738;19.472;2023-04-03T00:33:07;20.30;90.90
18412;DHT22;27097;51.738;19.472;2023-04-03T00:35:34;20.30;92.10
18412;DHT22;27097;51.738;19.472;2023-04-03T00:59:33;20.50;93.50
18412;DHT22;27097;51.738;19.472;2023-04-03T01:02:00;20.50;93.50
18412;DHT22;27097;51.738;19.472;2023-04-03T01:04:28;20.50;93.50
18412;DHT22;27097;51.738;19.472;2023-04-03T01:06:58;20.50;93.40
18412;DHT22;27097;51.738;19.472;2023-04-03T01:09:28;20.50;93.50
18412;DHT22;27097;51.738;19.472;2023-04-03T01:12:13;20.50;93.50
18412;DHT22;27097;51.738;19.472;2023-04-03T01:14:57;20.50;93.30
18412;DHT22;27097;51.738;19.472;2023-04-03T01:43:49;20.50;93.40
18412;DHT22;27097;51.738;19.472;2023-04-03T01:46:17;20.50;93.50
18412;DHT22;27097;51.738;19.472;2023-04-03T01:48:45;20.50;93.50
18412;DHT22;27097;51.738;19.472;2023-04-03T01:51:12;20.50;93.50
18412;DHT22;27097;51.738;19.472;2023-04-03T01:53:39;20.50;93.60
18412;DHT22;27097;51.738;19.472;2023-04-03T01:56:07;20.50;93.50
18412;DHT22;27097;51.738;19.472;2023-04-03T01:58:36;20.50;93.50
18412;DHT22;27097;51.738;19.472;2023-04-03T02:01:26;20.50;93.70
18412;DHT22;27097;51.738;19.472;2023-04-03T02:03:53;20.50;93.30
18412;DHT22;27097;51.738;19.472;2023-04-03T02:07:49;20.50;93.40
18412;DHT22;27097;51.738;19.472;2023-04-03T02:09:22;20.50;93.70
18412;DHT22;27097;51.738;19.472;2023-04-03T02:11:49;20.50;93.60
18412;DHT22;27097;51.738;19.472;2023-04-03T02:14:16;20.50;93.70
18412;DHT22;27097;51.738;19.472;2023-04-03T02:16:51;20.50;93.60
18412;DHT22;27097;51.738;19.472;2023-04-03T02:19:24;20.50;93.60
18412;DHT22;27097;51.738;19.472;2023-04-03T02:21:51;20.50;93.80
18412;DHT22;27097;51.738;19.472;2023-04-03T02:24:18;20.50;93.90
18412;DHT22;27097;51.738;19.472;2023-04-03T02:33:33;20.50;93.80
18412;DHT22;27097;51.738;19.472;2023-04-03T02:36:08;20.50;94.00
18412;DHT22;27097;51.738;19.472;2023-04-03T02:38:35;20.50;93.90
18412;DHT22;27097;51.738;19.472;2023-04-03T02:41:03;20.50;93.90
18412;DHT22;27097;51.738;19.472;2023-04-03T02:43:31;20.50;94.10
18412;DHT22;27097;51.738;19.472;2023-04-03T02:45:59;20.50;94.10
18412;DHT22;27097;51.738;19.472;2023-04-03T02:48:26;20.50;94.10
18412;DHT22;27097;51.738;19.472;2023-04-03T02:50:54;20.50;93.90
18412;DHT22;27097;51.738;19.472;2023-04-03T02:53:22;20.50;93.80
18412;DHT22;27097;51.738;19.472;2023-04-03T02:55:49;20.50;94.10
18412;DHT22;27097;51.738;19.472;2023-04-03T02:58:16;20.50;94.00
18412;DHT22;27097;51.738;19.472;2023-04-03T03:00:43;20.50;94.00
18412;DHT22;27097;51.738;19.472;2023-04-03T03:03:10;20.50;94.20
18412;DHT22;27097;51.738;19.472;2023-04-03T03:05:36;20.50;94.00
18412;DHT22;27097;51.738;19.472;2023-04-03T03:08:05;20.50;94.10
18412;DHT22;27097;51.738;19.472;2023-04-03T03:10:31;20.50;94.00
18412;DHT22;27097;51.738;19.472;2023-04-03T03:12:58;20.50;94.10
18412;DHT22;27097;51.738;19.472;2023-04-03T03:15:26;20.40;94.10
18412;DHT22;27097;51.738;19.472;2023-04-03T03:17:53;20.50;94.10
18412;DHT22;27097;51.738;19.472;2023-04-03T03:20:20;20.50;94.40
18412;DHT22;27097;51.738;19.472;2023-04-03T03:22:47;20.50;94.20
18412;DHT22;27097;51.738;19.472;2023-04-03T03:25:15;20.50;94.10
18412;DHT22;27097;51.738;19.472;2023-04-03T03:27:45;20.40;94.10
18412;DHT22;27097;51.738;19.472;2023-04-03T03:30:12;20.50;93.90
18412;DHT22;27097;51.738;19.472;2023-04-03T03:32:39;20.50;93.70
18412;DHT22;27097;51.738;19.472;2023-04-03T03:35:06;20.40;93.90
18412;DHT22;27097;51.738;19.472;2023-04-03T03:37:33;20.40;93.90
18412;DHT22;27097;51.738;19.472;2023-04-03T03:40:00;20.50;93.90
18412;DHT22;27097;51.738;19.472;2023-04-03T03:42:29;20.50;94.00
18412;DHT22;27097;51.738;19.472;2023-04-03T03:44:56;20.50;93.90
18412;DHT22;27097;51.738;19.472;2023-04-03T03:47:23;20.50;93.80
18412;DHT22;27097;51.738;19.472;2023-04-03T03:49:58;20.50;94.10
18412;DHT22;27097;51.738;19.472;2023-04-03T03:52:25;20.50;94.10
18412;DHT22;27097;51.738;19.472;2023-04-03T03:54:52;20.40;93.80
18412;DHT22;27097;51.738;19.472;2023-04-03T03:57:25;20.50;93.80
18412;DHT22;27097;51.738;19.472;2023-04-03T03:59:55;20.50;94.00
18412;DHT22;27097;51.738;19.472;2023-04-03T04:02:22;20.50;94.10
18412;DHT22;27097;51.738;19.472;2023-04-03T04:04:49;20.50;94.00
18412;DHT22;27097;51.738;19.472;2023-04-03T04:07:16;20.50;94.00
18412;DHT22;27097;51.738;19.472;2023-04-03T04:13:07;20.40;94.00
18412;DHT22;27097;51.738;19.472;2023-04-03T04:18:06;20.50;94.10
18412;DHT22;27097;51.738;19.472;2023-04-03T04:20:33;20.50;94.00
18412;DHT22;27097;51.738;19.472;2023-04-03T04:23:00;20.50;94.00
18412;DHT22;27097;51.738;19.472;2023-04-03T04:25:27;20.50;94.00
18412;DHT22;27097;51.738;19.472;2023-04-03T04:28:03;20.50;93.90
18412;DHT22;27097;51.738;19.472;2023-04-03T04:30:33;20.50;94.00
18412;DHT22;27097;51.738;19.472;2023-04-03T04:33:00;20.50;93.90
18412;DHT22;27097;51.738;19.472;2023-04-03T04:35:28;20.50;94.30
18412;DHT22;27097;51.738;19.472;2023-04-03T04:37:56;20.50;94.00
18412;DHT22;27097;51.738;19.472;2023-04-03T04:40:23;20.50;94.00
18412;DHT22;27097;51.738;19.472;2023-04-03T04:48:48;20.50;94.00
18412;DHT22;27097;51.738;19.472;2023-04-03T04:51:16;20.50;93.70
18412;DHT22;27097;51.738;19.472;2023-04-03T04:53:44;20.50;93.60
18412;DHT22;27097;51.738;19.472;2023-04-03T04:56:10;20.50;93.50
18412;DHT22;27097;51.738;19.472;2023-04-03T04:58:37;20.50;93.50
18412;DHT22;27097;51.738;19.472;2023-04-03T05:01:06;20.50;93.40
18412;DHT22;27097;51.738;19.472;2023-04-03T05:03:39;20.50;93.50
18412;DHT22;27097;51.738;19.472;2023-04-03T05:06:06;20.50;93.50
18412;DHT22;27097;51.738;19.472;2023-04-03T05:08:34;20.50;93.40
18412;DHT22;27097;51.738;19.472;2023-04-03T05:11:01;20.50;93.30
18412;DHT22;27097;51.738;19.472;2023-04-03T05:20:13;20.60;94.10
18412;DHT22;27097;51.738;19.472;2023-04-03T05:28:22;20.70;91.70
18412;DHT22;27097;51.738;19.472;2023-04-03T05:31:02;20.70;91.10
18412;DHT22;27097;51.738;19.472;2023-04-03T05:33:37;20.70;91.10
18412;DHT22;27097;51.738;19.472;2023-04-03T05:36:05;20.70;90.40
18412;DHT22;27097;51.738;19.472;2023-04-03T05:38:32;20.70;88.10
18412;DHT22;27097;51.738;19.472;2023-04-03T05:41:01;20.70;90.20
18412;DHT22;27097;51.738;19.472;2023-04-03T05:43:29;20.70;91.00
18412;DHT22;27097;51.738;19.472;2023-04-03T05:45:56;20.70;91.00
18412;DHT22;27097;51.738;19.472;2023-04-03T05:48:26;20.80;90.50
18412;DHT22;27097;51.738;19.472;2023-04-03T05:50:56;20.80;90.60
18412;DHT22;27097;51.738;19.472;2023-04-03T05:53:37;20.90;91.00
18412;DHT22;27097;51.738;19.472;2023-04-03T05:56:21;20.90;90.40
18412;DHT22;27097;51.738;19.472;2023-04-03T05:58:49;20.90;87.80
18412;DHT22;27097;51.738;19.472;2023-04-03T06:01:22;20.90;87.10
18412;DHT22;27097;51.738;19.472;2023-04-03T06:04:13;20.90;87.50
18412;DHT22;27097;51.738;19.472;2023-04-03T06:06:46;21.00;89.60
18412;DHT22;27097;51.738;19.472;2023-04-03T06:09:14;21.00;89.80
18412;DHT22;27097;51.738;19.472;2023-04-03T06:11:41;21.10;88.30
18412;DHT22;27097;51.738;19.472;2023-04-03T06:14:10;21.10;88.10
18412;DHT22;27097;51.738;19.472;2023-04-03T06:16:37;21.10;86.80
18412;DHT22;27097;51.738;19.472;2023-04-03T06:19:04;21.20;88.30
18412;DHT22;27097;51.738;19.472;2023-04-03T06:24:14;21.20;87.60
18412;DHT22;27097;51.738;19.472;2023-04-03T06:26:53;21.30;85.80
18412;DHT22;27097;51.738;19.472;2023-04-03T06:29:35;21.30;85.20
18412;DHT22;27097;51.738;19.472;2023-04-03T06:32:02;21.40;84.10
18412;DHT22;27097;51.738;19.472;2023-04-03T06:34:29;21.40;83.60
18412;DHT22;27097;51.738;19.472;2023-04-03T06:36:56;21.40;83.70
18412;DHT22;27097;51.738;19.472;2023-04-03T06:39:23;21.40;82.30
18412;DHT22;27097;51.738;19.472;2023-04-03T06:41:51;21.50;80.90
18412;DHT22;27097;51.738;19.472;2023-04-03T06:44:18;21.50;80.10
18412;DHT22;27097;51.738;19.472;2023-04-03T06:46:46;21.60;80.20
18412;DHT22;27097;51.738;19.472;2023-04-03T06:49:14;21.60;79.80
18412;DHT22;27097;51.738;19.472;2023-04-03T06:51:40;21.70;78.90
18412;DHT22;27097;51.738;19.472;2023-04-03T06:54:14;21.70;77.90
18412;DHT22;27097;51.738;19.472;2023-04-03T06:56:40;21.80;76.40
18412;DHT22;27097;51.738;19.472;2023-04-03T06:59:09;21.80;77.20
18412;DHT22;27097;51.738;19.472;2023-04-03T07:01:36;21.80;77.00
18412;DHT22;27097;51.738;19.472;2023-04-03T07:04:51;21.90;76.30
18412;DHT22;27097;51.738;19.472;2023-04-03T07:07:28;21.90;75.20
18412;DHT22;27097;51.738;19.472;2023-04-03T07:12:52;22.10;74.50
18412;DHT22;27097;51.738;19.472;2023-04-03T07:15:29;22.20;74.30
18412;DHT22;27097;51.738;19.472;2023-04-03T07:18:02;22.20;74.00
18412;DHT22;27097;51.738;19.472;2023-04-03T07:20:31;22.20;73.50
18412;DHT22;27097;51.738;19.472;2023-04-03T07:22:58;22.30;73.90
18412;DHT22;27097;51.738;19.472;2023-04-03T07:25:25;22.30;73.90
18412;DHT22;27097;51.738;19.472;2023-04-03T07:28:00;22.40;73.00
18412;DHT22;27097;51.738;19.472;2023-04-03T07:34:05;22.50;72.80
18412;DHT22;27097;51.738;19.472;2023-04-03T07:36:33;22.50;72.60
18412;DHT22;27097;51.738;19.472;2023-04-03T07:39:01;22.50;73.00
18412;DHT22;27097;51.738;19.472;2023-04-03T07:44:49;22.60;72.40
18412;DHT22;27097;51.738;19.472;2023-04-03T07:47:16;22.60;72.00
18412;DHT22;27097;51.738;19.472;2023-04-03T07:49:43;22.60;71.30
18412;DHT22;27097;51.738;19.472;2023-04-03T07:52:12;22.70;72.30
18412;DHT22;27097;51.738;19.472;2023-04-03T07:54:43;22.70;71.60
18412;DHT22;27097;51.738;19.472;2023-04-03T07:57:10;22.80;71.80
18412;DHT22;27097;51.738;19.472;2023-04-03T07:59:37;22.80;72.10
18412;DHT22;27097;51.738;19.472;2023-04-03T08:02:17;22.80;73.10
18412;DHT22;27097;51.738;19.472;2023-04-03T08:07:16;22.90;72.30
18412;DHT22;27097;51.738;19.472;2023-04-03T08:10:11;22.80;73.30
18412;DHT22;27097;51.738;19.472;2023-04-03T08:12:41;22.90;74.40
18412;DHT22;27097;51.738;19.472;2023-04-03T08:15:09;22.90;76.00
18412;DHT22;27097;51.738;19.472;2023-04-03T08:17:55;22.90;77.30
18412;DHT22;27097;51.738;19.472;2023-04-03T08:20:32;22.90;78.40
18412;DHT22;27097;51.738;19.472;2023-04-03T08:23:16;22.90;78.60
18412;DHT22;27097;51.738;19.472;2023-04-03T08:25:52;22.90;78.20
18412;DHT22;27097;51.738;19.472;2023-04-03T08:28:18;22.90;79.80
18412;DHT22;27097;51.738;19.472;2023-04-03T08:30:48;22.90;80.60
18412;DHT22;27097;51.738;19.472;2023-04-03T08:33:19;22.90;82.60
18412;DHT22;27097;51.738;19.472;2023-04-03T08:47:23;22.90;88.40
18412;DHT22;27097;51.738;19.472;2023-04-03T08:50:02;22.90;89.80
18412;DHT22;27097;51.738;19.472;2023-04-03T08:52:37;22.90;90.30
18412;DHT22;27097;51.738;19.472;2023-04-03T08:55:24;22.90;91.30
18412;DHT22;27097;51.738;19.472;2023-04-03T08:57:59;22.90;88.10
18412;DHT22;27097;51.738;19.472;2023-04-03T09:01:14;22.80;77.80
18412;DHT22;27097;51.738;19.472;2023-04-03T09:03:47;22.70;87.40
18412;DHT22;27097;51.738;19.472;2023-04-03T09:06:16;22.70;79.30
18412;DHT22;27097;51.738;19.472;2023-04-03T09:08:49;22.60;82.50
18412;DHT22;27097;51.738;19.472;2023-04-03T09:11:21;22.60;78.70
18412;DHT22;27097;51.738;19.472;2023-04-03T09:13:57;22.60;70.10
18412;DHT22;27097;51.738;19.472;2023-04-03T09:16:36;22.60;70.10
18412;DHT22;27097;51.738;19.472;2023-04-03T09:19:12;22.60;78.10
18412;DHT22;27097;51.738;19.472;2023-04-03T09:21:42;22.60;74.10
18412;DHT22;27097;51.738;19.472;2023-04-03T09:24:11;22.60;71.40
18412;DHT22;27097;51.738;19.472;2023-04-03T09:26:41;22.70;73.00
18412;DHT22;27097;51.738;19.472;2023-04-03T09:29:15;22.70;74.90
18412;DHT22;27097;51.738;19.472;2023-04-03T09:31:49;22.70;69.10
18412;DHT22;27097;51.738;19.472;2023-04-03T09:34:23;22.70;74.10
18412;DHT22;27097;51.738;19.472;2023-04-03T09:36:56;22.60;68.90
18412;DHT22;27097;51.738;19.472;2023-04-03T09:39:26;22.60;70.10
18412;DHT22;27097;51.738;19.472;2023-04-03T09:42:00;22.60;69.70
18412;DHT22;27097;51.738;19.472;2023-04-03T09:44:29;22.60;74.40
18412;DHT22;27097;51.738;19.472;2023-04-03T09:46:56;22.60;66.40
18412;DHT22;27097;51.738;19.472;2023-04-03T09:49:25;22.40;65.90
18412;DHT22;27097;51.738;19.472;2023-04-03T09:51:52;22.50;77.40
18412;DHT22;27097;51.738;19.472;2023-04-03T09:57:21;22.50;80.80
18412;DHT22;27097;51.738;19.472;2023-04-03T10:06:25;22.50;80.70
18412;DHT22;27097;51.738;19.472;2023-04-03T10:08:59;22.50;83.50
18412;DHT22;27097;51.738;19.472;2023-04-03T10:11:30;22.60;82.70
18412;DHT22;27097;51.738;19.472;2023-04-03T10:13:58;22.60;83.70
18412;DHT22;27097;51.738;19.472;2023-04-03T10:16:29;22.60;83.70
18412;DHT22;27097;51.738;19.472;2023-04-03T10:19:29;22.60;85.50
18412;DHT22;27097;51.738;19.472;2023-04-03T10:22:03;22.60;85.00
18412;DHT22;27097;51.738;19.472;2023-04-03T10:24:39;22.60;84.20
18412;DHT22;27097;51.738;19.472;2023-04-03T10:27:13;22.60;84.20
18412;DHT22;27097;51.738;19.472;2023-04-03T10:29:49;22.60;85.20
18412;DHT22;27097;51.738;19.472;2023-04-03T10:32:42;22.70;85.80
18412;DHT22;27097;51.738;19.472;2023-04-03T10:35:18;22.60;84.20
18412;DHT22;27097;51.738;19.472;2023-04-03T10:37:59;22.60;84.50
18412;DHT22;27097;51.738;19.472;2023-04-03T10:40:33;22.60;84.90
18412;DHT22;27097;51.738;19.472;2023-04-03T10:43:06;22.60;85.20
18412;DHT22;27097;51.738;19.472;2023-04-03T10:45:52;22.60;83.80
18412;DHT22;27097;51.738;19.472;2023-04-03T10:51:53;22.60;83.60
18412;DHT22;27097;51.738;19.472;2023-04-03T10:54:52;22.60;83.70
18412;DHT22;27097;51.738;19.472;2023-04-03T10:57:23;22.70;83.40
18412;DHT22;27097;51.738;19.472;2023-04-03T10:59:53;22.70;84.30
18412;DHT22;27097;51.738;19.472;2023-04-03T11:05:02;22.70;83.60
18412;DHT22;27097;51.738;19.472;2023-04-03T11:07:43;22.70;84.60
18412;DHT22;27097;51.738;19.472;2023-04-03T11:10:17;22.80;84.00
18412;DHT22;27097;51.738;19.472;2023-04-03T11:12:51;22.80;77.60
18412;DHT22;27097;51.738;19.472;2023-04-03T11:15:20;22.80;81.60
18412;DHT22;27097;51.738;19.472;2023-04-03T11:17:53;22.80;76.40
18412;DHT22;27097;51.738;19.472;2023-04-03T11:20:23;22.90;77.80
18412;DHT22;27097;51.738;19.472;2023-04-03T11:22:58;22.90;79.90
18412;DHT22;27097;51.738;19.472;2023-04-03T11:25:29;22.90;80.20
18412;DHT22;27097;51.738;19.472;2023-04-03T11:27:59;22.80;80.00
18412;DHT22;27097;51.738;19.472;2023-04-03T11:30:30;22.80;78.20
18412;DHT22;27097;51.738;19.472;2023-04-03T11:33:08;22.70;78.40
18412;DHT22;27097;51.738;19.472;2023-04-03T11:35:43;22.70;80.80
18412;DHT22;27097;51.738;19.472;2023-04-03T11:38:17;22.70;81.80
18412;DHT22;27097;51.738;19.472;2023-04-03T11:40:47;22.70;81.20
18412;DHT22;27097;51.738;19.472;2023-04-03T11:43:23;22.60;79.30
18412;DHT22;27097;51.738;19.472;2023-04-03T11:52:13;22.60;80.10
18412;DHT22;27097;51.738;19.472;2023-04-03T11:58:19;22.60;72.30
18412;DHT22;27097;51.738;19.472;2023-04-03T12:01:03;22.60;73.30
18412;DHT22;27097;51.738;19.472;2023-04-03T12:07:13;22.70;68.60
18412;DHT22;27097;51.738;19.472;2023-04-03T12:10:14;22.70;64.60
18412;DHT22;27097;51.738;19.472;2023-04-03T12:12:42;22.70;63.90
18412;DHT22;27097;51.738;19.472;2023-04-03T12:15:41;22.60;60.60
18412;DHT22;27097;51.738;19.472;2023-04-03T12:18:40;22.50;59.70
18412;DHT22;27097;51.738;19.472;2023-04-03T12:21:08;22.30;59.50
18412;DHT22;27097;51.738;19.472;2023-04-03T12:23:36;22.30;64.50
18412;DHT22;27097;51.738;19.472;2023-04-03T12:26:23;22.30;60.10
18412;DHT22;27097;51.738;19.472;2023-04-03T12:28:53;22.20;58.70
18412;DHT22;27097;51.738;19.472;2023-04-03T12:31:24;22.20;59.20
18412;DHT22;27097;51.738;19.472;2023-04-03T12:34:09;22.10;58.50
18412;DHT22;27097;51.738;19.472;2023-04-03T12:36:46;22.10;57.50
18412;DHT22;27097;51.738;19.472;2023-04-03T12:42:40;21.90;58.30
18412;DHT22;27097;51.738;19.472;2023-04-03T12:48:48;21.80;57.40
18412;DHT22;27097;51.738;19.472;2023-04-03T12:54:03;21.80;59.30
18412;DHT22;27097;51.738;19.472;2023-04-03T12:56:32;21.80;62.00
18412;DHT22;27097;51.738;19.472;2023-04-03T12:59:14;21.80;58.40
18412;DHT22;27097;51.738;19.472;2023-04-03T13:01:41;21.80;57.80
18412;DHT22;27097;51.738;19.472;2023-04-03T13:04:13;21.80;57.90
18412;DHT22;27097;51.738;19.472;2023-04-03T13:06:41;21.80;61.40
18412;DHT22;27097;51.738;19.472;2023-04-03T13:09:22;21.80;57.70
18412;DHT22;27097;51.738;19.472;2023-04-03T13:11:57;21.70;55.20
18412;DHT22;27097;51.738;19.472;2023-04-03T13:14:26;21.60;55.90
18412;DHT22;27097;51.738;19.472;2023-04-03T13:17:14;21.60;55.40
18412;DHT22;27097;51.738;19.472;2023-04-03T13:23:13;21.20;48.20
18412;DHT22;27097;51.738;19.472;2023-04-03T13:25:53;20.80;54.00
18412;DHT22;27097;51.738;19.472;2023-04-03T13:28:22;20.80;64.60
18412;DHT22;27097;51.738;19.472;2023-04-03T13:31:06;20.90;64.10
18412;DHT22;27097;51.738;19.472;2023-04-03T13:37:29;21.20;66.50
18412;DHT22;27097;51.738;19.472;2023-04-03T13:40:17;21.30;67.00
18412;DHT22;27097;51.738;19.472;2023-04-03T13:42:44;21.40;67.80
18412;DHT22;27097;51.738;19.472;2023-04-03T13:45:20;21.50;68.00
18412;DHT22;27097;51.738;19.472;2023-04-03T13:47:51;21.60;68.40
18412;DHT22;27097;51.738;19.472;2023-04-03T13:50:20;21.70;68.30
18412;DHT22;27097;51.738;19.472;2023-04-03T13:52:49;21.70;68.60
18412;DHT22;27097;51.738;19.472;2023-04-03T13:55:22;21.80;69.60
18412;DHT22;27097;51.738;19.472;2023-04-03T13:57:55;21.80;69.90
18412;DHT22;27097;51.738;19.472;2023-04-03T14:00:34;21.90;70.90
18412;DHT22;27097;51.738;19.472;2023-04-03T14:03:02;21.90;70.30
18412;DHT22;27097;51.738;19.472;2023-04-03T14:05:30;21.90;58.10
18412;DHT22;27097;51.738;19.472;2023-04-03T14:07:57;21.50;57.70
18412;DHT22;27097;51.738;19.472;2023-04-03T14:10:25;21.50;69.70
18412;DHT22;27097;51.738;19.472;2023-04-03T14:12:52;21.40;50.10
18412;DHT22;27097;51.738;19.472;2023-04-03T14:15:23;20.80;46.70
18412;DHT22;27097;51.738;19.472;2023-04-03T14:17:51;20.60;62.00
18412;DHT22;27097;51.738;19.472;2023-04-03T14:20:21;20.70;69.50
18412;DHT22;27097;51.738;19.472;2023-04-03T14:22:48;20.80;68.00
18412;DHT22;27097;51.738;19.472;2023-04-03T14:25:16;20.90;68.80
18412;DHT22;27097;51.738;19.472;2023-04-03T14:27:47;21.10;69.80
18412;DHT22;27097;51.738;19.472;2023-04-03T14:30:18;21.30;69.70
18412;DHT22;27097;51.738;19.472;2023-04-03T14:33:05;21.40;70.40
18412;DHT22;27097;51.738;19.472;2023-04-03T14:35:32;21.50;70.30
18412;DHT22;27097;51.738;19.472;2023-04-03T14:37:59;21.50;70.10
18412;DHT22;27097;51.738;19.472;2023-04-03T14:40:27;21.60;70.10
18412;DHT22;27097;51.738;19.472;2023-04-03T14:43:00;21.60;69.90
18412;DHT22;27097;51.738;19.472;2023-04-03T14:45:27;21.70;70.80
18412;DHT22;27097;51.738;19.472;2023-04-03T14:47:55;21.70;70.70
18412;DHT22;27097;51.738;19.472;2023-04-03T14:50:25;21.70;71.30
18412;DHT22;27097;51.738;19.472;2023-04-03T14:52:55;21.80;71.40
18412;DHT22;27097;51.738;19.472;2023-04-03T14:55:24;21.80;71.60
18412;DHT22;27097;51.738;19.472;2023-04-03T14:57:52;21.80;73.20
18412;DHT22;27097;51.738;19.472;2023-04-03T15:00:30;21.80;72.80
18412;DHT22;27097;51.738;19.472;2023-04-03T15:02:58;21.80;72.70
18412;DHT22;27097;51.738;19.472;2023-04-03T15:05:25;21.80;72.30
18412;DHT22;27097;51.738;19.472;2023-04-03T15:07:54;21.70;71.00
18412;DHT22;27097;51.738;19.472;2023-04-03T15:10:28;21.80;71.40
18412;DHT22;27097;51.738;19.472;2023-04-03T15:12:58;21.80;71.50
18412;DHT22;27097;51.738;19.472;2023-04-03T15:15:29;21.80;71.50
18412;DHT22;27097;51.738;19.472;2023-04-03T15:17:57;21.80;71.80
18412;DHT22;27097;51.738;19.472;2023-04-03T15:20:25;21.80;71.40
18412;DHT22;27097;51.738;19.472;2023-04-03T15:22:52;21.80;72.40
18412;DHT22;27097;51.738;19.472;2023-04-03T15:25:21;21.80;72.00
18412;DHT22;27097;51.738;19.472;2023-04-03T15:27:48;21.80;72.30
18412;DHT22;27097;51.738;19.472;2023-04-03T15:30:17;21.80;72.00
18412;DHT22;27097;51.738;19.472;2023-04-03T15:32:46;21.80;72.30
18412;DHT22;27097;51.738;19.472;2023-04-03T15:35:13;21.80;72.30
18412;DHT22;27097;51.738;19.472;2023-04-03T15:37:41;21.80;71.90
18412;DHT22;27097;51.738;19.472;2023-04-03T15:40:08;21.80;71.40
18412;DHT22;27097;51.738;19.472;2023-04-03T15:42:36;21.80;72.50
18412;DHT22;27097;51.738;19.472;2023-04-03T15:45:07;21.80;72.00
18412;DHT22;27097;51.738;19.472;2023-04-03T15:47:34;21.80;71.60
18412;DHT22;27097;51.738;19.472;2023-04-03T15:50:05;21.80;70.80
18412;DHT22;27097;51.738;19.472;2023-04-03T15:52:33;21.80;71.10
18412;DHT22;27097;51.738;19.472;2023-04-03T15:55:00;21.80;71.20
18412;DHT22;27097;51.738;19.472;2023-04-03T15:57:27;21.80;71.20
18412;DHT22;27097;51.738;19.472;2023-04-03T15:59:54;21.80;71.10
18412;DHT22;27097;51.738;19.472;2023-04-03T16:02:22;21.80;73.30
18412;DHT22;27097;51.738;19.472;2023-04-03T16:04:49;21.80;74.30
18412;DHT22;27097;51.738;19.472;2023-04-03T16:07:17;21.80;74.50
18412;DHT22;27097;51.738;19.472;2023-04-03T16:09:44;21.80;73.80
18412;DHT22;27097;51.738;19.472;2023-04-03T16:12:11;21.80;72.80
18412;DHT22;27097;51.738;19.472;2023-04-03T16:14:41;21.80;71.30
18412;DHT22;27097;51.738;19.472;2023-04-03T16:17:08;21.80;72.00
18412;DHT22;27097;51.738;19.472;2023-04-03T16:19:35;21.80;71.40
18412;DHT22;27097;51.738;19.472;2023-04-03T16:22:02;21.80;71.00
18412;DHT22;27097;51.738;19.472;2023-04-03T16:24:37;21.80;71.20
18412;DHT22;27097;51.738;19.472;2023-04-03T16:27:03;21.80;71.80
18412;DHT22;27097;51.738;19.472;2023-04-03T16:29:30;21.80;70.60
18412;DHT22;27097;51.738;19.472;2023-04-03T16:35:12;21.80;71.00
18412;DHT22;27097;51.738;19.472;2023-04-03T16:37:51;21.80;69.90
18412;DHT22;27097;51.738;19.472;2023-04-03T16:40:33;21.80;70.50
18412;DHT22;27097;51.738;19.472;2023-04-03T16:43:02;21.80;70.50
18412;DHT22;27097;51.738;19.472;2023-04-03T16:45:29;21.80;70.90
18412;DHT22;27097;51.738;19.472;2023-04-03T16:47:56;21.80;70.60
18412;DHT22;27097;51.738;19.472;2023-04-03T16:50:26;21.80;71.00
18412;DHT22;27097;51.738;19.472;2023-04-03T16:53:08;21.80;76.00
18412;DHT22;27097;51.738;19.472;2023-04-03T16:56:19;21.80;81.30
18412;DHT22;27097;51.738;19.472;2023-04-03T16:58:47;21.80;84.20
18412;DHT22;27097;51.738;19.472;2023-04-03T17:01:16;21.80;85.50
18412;DHT22;27097;51.738;19.472;2023-04-03T17:03:43;21.80;88.90
18412;DHT22;27097;51.738;19.472;2023-04-03T17:06:13;21.70;87.40
18412;DHT22;27097;51.738;19.472;2023-04-03T17:08:46;21.70;86.30
18412;DHT22;27097;51.738;19.472;2023-04-03T17:11:27;21.70;85.90
18412;DHT22;27097;51.738;19.472;2023-04-03T17:13:54;21.70;83.40
18412;DHT22;27097;51.738;19.472;2023-04-03T17:16:22;21.80;82.00
18412;DHT22;27097;51.738;19.472;2023-04-03T17:18:50;21.80;80.70
18412;DHT22;27097;51.738;19.472;2023-04-03T17:21:20;21.80;80.00
18412;DHT22;27097;51.738;19.472;2023-04-03T17:23:50;21.80;80.10
18412;DHT22;27097;51.738;19.472;2023-04-03T17:26:18;21.80;79.30
18412;DHT22;27097;51.738;19.472;2023-04-03T17:28:47;21.80;78.90
18412;DHT22;27097;51.738;19.472;2023-04-03T17:31:14;21.80;78.50
18412;DHT22;27097;51.738;19.472;2023-04-03T17:33:41;21.80;78.10
18412;DHT22;27097;51.738;19.472;2023-04-03T17:36:08;21.80;78.70
18412;DHT22;27097;51.738;19.472;2023-04-03T17:38:36;21.80;78.30
18412;DHT22;27097;51.738;19.472;2023-04-03T17:41:04;21.70;74.60
18412;DHT22;27097;51.738;19.472;2023-04-03T17:43:32;21.70;73.80
18412;DHT22;27097;51.738;19.472;2023-04-03T17:46:01;21.70;72.20
18412;DHT22;27097;51.738;19.472;2023-04-03T17:48:29;21.60;70.70
18412;DHT22;27097;51.738;19.472;2023-04-03T17:50:56;21.60;71.20
18412;DHT22;27097;51.738;19.472;2023-04-03T17:53:23;21.60;68.60
18412;DHT22;27097;51.738;19.472;2023-04-03T17:55:52;21.50;68.40
18412;DHT22;27097;51.738;19.472;2023-04-03T17:58:19;21.50;69.10
18412;DHT22;27097;51.738;19.472;2023-04-03T18:00:46;21.50;70.10
18412;DHT22;27097;51.738;19.472;2023-04-03T18:03:16;21.50;67.00
18412;DHT22;27097;51.738;19.472;2023-04-03T18:05:45;21.50;69.00
18412;DHT22;27097;51.738;19.472;2023-04-03T18:08:12;21.50;68.50
18412;DHT22;27097;51.738;19.472;2023-04-03T18:10:39;21.50;67.50
18412;DHT22;27097;51.738;19.472;2023-04-03T18:13:06;21.50;67.50
18412;DHT22;27097;51.738;19.472;2023-04-03T18:15:33;21.50;68.50
18412;DHT22;27097;51.738;19.472;2023-04-03T18:18:02;21.50;67.60
18412;DHT22;27097;51.738;19.472;2023-04-03T18:20:31;21.50;67.80